sensor_id;sensor_type;location;lat;lon;timestamp;P1;durP1;ratioP1;P2;durP2;ratioP2
12052;SDS011;6087;48.982;12.064;2023-04-23T00:00:23;4.38;;;2.47;;
12052;SDS011;6087;48.982;12.064;2023-04-23T00:02:52;2.30;;;2.10;;
12052;SDS011;6087;48.982;12.064;2023-04-23T00:05:20;3.67;;;2.75;;
12052;SDS011;6087;48.982;12.064;2023-04-23T00:07:50;5.05;;;3.40;;
12052;SDS011;6087;48.982;12.064;2023-04-23T00:10:18;3.55;;;2.80;;
12052;SDS011;6087;48.982;12.064;2023-04-23T00:12:45;3.08;;;2.78;;
12052;SDS011;6087;48.982;12.064;2023-04-23T00:15:13;4.85;;;2.63;;
12052;SDS011;6087;48.982;12.064;2023-04-23T00:17:40;3.03;;;2.50;;
12052;SDS011;6087;48.982;12.064;2023-04-23T00:20:11;4.03;;;2.22;;
12052;SDS011;6087;48.982;12.064;2023-04-23T00:22:39;2.90;;;2.70;;
12052;SDS011;6087;48.982;12.064;2023-04-23T00:25:06;3.10;;;2.80;;
12052;SDS011;6087;48.982;12.064;2023-04-23T00:27:33;4.32;;;2.78;;
12052;SDS011;6087;48.982;12.064;2023-04-23T00:30:00;2.60;;;2.40;;
12052;SDS011;6087;48.982;12.064;2023-04-23T00:32:27;3.60;;;3.10;;
12052;SDS011;6087;48.982;12.064;2023-04-23T00:34:54;5.78;;;3.20;;
12052;SDS011;6087;48.982;12.064;2023-04-23T00:37:23;3.33;;;2.83;;
12052;SDS011;6087;48.982;12.064;2023-04-23T00:39:50;3.10;;;2.50;;
12052;SDS011;6087;48.982;12.064;2023-04-23T00:42:17;2.90;;;2.53;;
12052;SDS011;6087;48.982;12.064;2023-04-23T00:44:44;3.05;;;2.83;;
12052;SDS011;6087;48.982;12.064;2023-04-23T00:47:11;3.10;;;2.80;;
12052;SDS011;6087;48.982;12.064;2023-04-23T00:49:40;2.95;;;2.75;;
12052;SDS011;6087;48.982;12.064;2023-04-23T00:52:09;3.60;;;3.30;;
12052;SDS011;6087;48.982;12.064;2023-04-23T00:54:38;2.92;;;2.63;;
12052;SDS011;6087;48.982;12.064;2023-04-23T00:57:04;3.90;;;2.88;;
12052;SDS011;6087;48.982;12.064;2023-04-23T00:59:32;5.05;;;2.97;;
12052;SDS011;6087;48.982;12.064;2023-04-23T01:02:02;3.03;;;2.72;;
12052;SDS011;6087;48.982;12.064;2023-04-23T01:04:29;3.75;;;2.63;;
12052;SDS011;6087;48.982;12.064;2023-04-23T01:06:57;3.15;;;2.85;;
12052;SDS011;6087;48.982;12.064;2023-04-23T01:09:25;4.63;;;2.90;;
12052;SDS011;6087;48.982;12.064;2023-04-23T01:12:00;2.50;;;2.30;;
12052;SDS011;6087;48.982;12.064;2023-04-23T01:14:31;2.97;;;2.78;;
12052;SDS011;6087;48.982;12.064;2023-04-23T01:19:38;3.70;;;3.40;;
12052;SDS011;6087;48.982;12.064;2023-04-23T01:22:08;3.35;;;3.05;;
12052;SDS011;6087;48.982;12.064;2023-04-23T01:24:36;3.47;;;3.17;;
12052;SDS011;6087;48.982;12.064;2023-04-23T01:27:03;3.58;;;2.88;;
12052;SDS011;6087;48.982;12.064;2023-04-23T01:29:31;5.60;;;3.65;;
12052;SDS011;6087;48.982;12.064;2023-04-23T01:31:59;5.75;;;3.75;;
12052;SDS011;6087;48.982;12.064;2023-04-23T01:34:27;6.93;;;3.00;;
12052;SDS011;6087;48.982;12.064;2023-04-23T01:36:55;3.75;;;3.08;;
12052;SDS011;6087;48.982;12.064;2023-04-23T01:39:25;4.45;;;3.55;;
12052;SDS011;6087;48.982;12.064;2023-04-23T01:41:52;3.33;;;3.03;;
12052;SDS011;6087;48.982;12.064;2023-04-23T01:44:19;4.80;;;3.17;;
12052;SDS011;6087;48.982;12.064;2023-04-23T01:46:46;4.80;;;3.33;;
12052;SDS011;6087;48.982;12.064;2023-04-23T01:49:13;4.03;;;3.22;;
12052;SDS011;6087;48.982;12.064;2023-04-23T01:51:41;3.88;;;3.22;;
12052;SDS011;6087;48.982;12.064;2023-04-23T01:54:08;4.32;;;3.92;;
12052;SDS011;6087;48.982;12.064;2023-04-23T01:56:36;4.38;;;3.67;;
12052;SDS011;6087;48.982;12.064;2023-04-23T01:59:03;4.13;;;3.53;;
12052;SDS011;6087;48.982;12.064;2023-04-23T02:01:40;3.97;;;3.58;;
12052;SDS011;6087;48.982;12.064;2023-04-23T02:04:09;4.13;;;3.30;;
12052;SDS011;6087;48.982;12.064;2023-04-23T02:06:37;4.13;;;3.70;;
12052;SDS011;6087;48.982;12.064;2023-04-23T02:09:05;4.38;;;2.90;;
12052;SDS011;6087;48.982;12.064;2023-04-23T02:11:32;3.17;;;2.88;;
12052;SDS011;6087;48.982;12.064;2023-04-23T02:14:01;2.80;;;2.58;;
12052;SDS011;6087;48.982;12.064;2023-04-23T02:16:29;4.03;;;2.97;;
12052;SDS011;6087;48.982;12.064;2023-04-23T02:18:56;2.92;;;2.70;;
12052;SDS011;6087;48.982;12.064;2023-04-23T02:21:24;3.10;;;2.90;;
12052;SDS011;6087;48.982;12.064;2023-04-23T02:23:51;4.45;;;3.00;;
12052;SDS011;6087;48.982;12.064;2023-04-23T02:26:18;2.90;;;2.70;;
12052;SDS011;6087;48.982;12.064;2023-04-23T02:28:46;3.58;;;2.67;;
12052;SDS011;6087;48.982;12.064;2023-04-23T02:31:15;3.33;;;2.83;;
12052;SDS011;6087;48.982;12.064;2023-04-23T02:33:42;4.43;;;3.03;;
12052;SDS011;6087;48.982;12.064;2023-04-23T02:36:17;2.95;;;2.70;;
12052;SDS011;6087;48.982;12.064;2023-04-23T02:38:46;3.42;;;2.88;;
12052;SDS011;6087;48.982;12.064;2023-04-23T02:41:15;4.75;;;2.50;;
12052;SDS011;6087;48.982;12.064;2023-04-23T02:43:45;2.55;;;2.30;;
12052;SDS011;6087;48.982;12.064;2023-04-23T02:46:12;3.63;;;2.53;;
12052;SDS011;6087;48.982;12.064;2023-04-23T02:48:40;3.30;;;2.58;;
12052;SDS011;6087;48.982;12.064;2023-04-23T02:51:08;3.13;;;2.25;;
12052;SDS011;6087;48.982;12.064;2023-04-23T02:53:36;3.33;;;2.50;;
12052;SDS011;6087;48.982;12.064;2023-04-23T02:56:03;2.28;;;2.17;;
12052;SDS011;6087;48.982;12.064;2023-04-23T02:58:31;5.60;;;2.47;;
12052;SDS011;6087;48.982;12.064;2023-04-23T03:00:58;3.85;;;2.92;;
12052;SDS011;6087;48.982;12.064;2023-04-23T03:03:26;3.17;;;2.40;;
12052;SDS011;6087;48.982;12.064;2023-04-23T03:05:57;2.65;;;2.40;;
12052;SDS011;6087;48.982;12.064;2023-04-23T03:08:25;2.83;;;2.42;;
12052;SDS011;6087;48.982;12.064;2023-04-23T03:10:58;2.50;;;2.10;;
12052;SDS011;6087;48.982;12.064;2023-04-23T03:13:25;5.13;;;2.33;;
12052;SDS011;6087;48.982;12.064;2023-04-23T03:15:52;1.95;;;1.85;;
12052;SDS011;6087;48.982;12.064;2023-04-23T03:18:23;2.65;;;2.15;;
12052;SDS011;6087;48.982;12.064;2023-04-23T03:20:50;2.30;;;2.10;;
12052;SDS011;6087;48.982;12.064;2023-04-23T03:23:19;2.72;;;2.10;;
12052;SDS011;6087;48.982;12.064;2023-04-23T03:25:46;1.80;;;1.70;;
12052;SDS011;6087;48.982;12.064;2023-04-23T03:28:19;2.80;;;1.63;;
12052;SDS011;6087;48.982;12.064;2023-04-23T03:30:46;2.13;;;1.92;;
12052;SDS011;6087;48.982;12.064;2023-04-23T03:33:19;2.60;;;2.40;;
12052;SDS011;6087;48.982;12.064;2023-04-23T03:35:46;2.28;;;2.08;;
12052;SDS011;6087;48.982;12.064;2023-04-23T03:38:13;3.30;;;2.40;;
12052;SDS011;6087;48.982;12.064;2023-04-23T03:40:41;5.30;;;2.45;;
12052;SDS011;6087;48.982;12.064;2023-04-23T03:43:09;3.08;;;2.42;;
12052;SDS011;6087;48.982;12.064;2023-04-23T03:45:36;2.53;;;2.30;;
12052;SDS011;6087;48.982;12.064;2023-04-23T03:48:05;5.00;;;2.30;;
12052;SDS011;6087;48.982;12.064;2023-04-23T03:50:32;3.42;;;2.67;;
12052;SDS011;6087;48.982;12.064;2023-04-23T03:53:03;5.35;;;2.70;;
12052;SDS011;6087;48.982;12.064;2023-04-23T03:55:30;3.03;;;2.70;;
12052;SDS011;6087;48.982;12.064;2023-04-23T03:57:58;5.75;;;2.58;;
12052;SDS011;6087;48.982;12.064;2023-04-23T04:00:25;3.22;;;2.92;;
12052;SDS011;6087;48.982;12.064;2023-04-23T04:03:01;4.63;;;2.45;;
12052;SDS011;6087;48.982;12.064;2023-04-23T04:05:29;5.70;;;2.80;;
12052;SDS011;6087;48.982;12.064;2023-04-23T04:08:01;3.50;;;2.75;;
12052;SDS011;6087;48.982;12.064;2023-04-23T04:10:29;3.22;;;2.80;;
12052;SDS011;6087;48.982;12.064;2023-04-23T04:12:56;3.20;;;2.42;;
12052;SDS011;6087;48.982;12.064;2023-04-23T04:15:24;5.55;;;3.35;;
12052;SDS011;6087;48.982;12.064;2023-04-23T04:17:51;3.22;;;2.35;;
12052;SDS011;6087;48.982;12.064;2023-04-23T04:20:18;3.25;;;2.85;;
12052;SDS011;6087;48.982;12.064;2023-04-23T04:22:45;3.53;;;2.65;;
12052;SDS011;6087;48.982;12.064;2023-04-23T04:25:18;4.47;;;2.42;;
12052;SDS011;6087;48.982;12.064;2023-04-23T04:27:46;2.92;;;2.30;;
12052;SDS011;6087;48.982;12.064;2023-04-23T04:30:13;3.83;;;2.35;;
12052;SDS011;6087;48.982;12.064;2023-04-23T04:32:42;3.42;;;2.40;;
12052;SDS011;6087;48.982;12.064;2023-04-23T04:35:09;5.90;;;2.58;;
12052;SDS011;6087;48.982;12.064;2023-04-23T04:37:40;2.72;;;2.40;;
12052;SDS011;6087;48.982;12.064;2023-04-23T04:40:08;2.53;;;2.33;;
12052;SDS011;6087;48.982;12.064;2023-04-23T04:42:36;2.53;;;2.13;;
12052;SDS011;6087;48.982;12.064;2023-04-23T04:45:04;3.53;;;1.70;;
12052;SDS011;6087;48.982;12.064;2023-04-23T04:47:32;2.63;;;2.33;;
12052;SDS011;6087;48.982;12.064;2023-04-23T04:50:01;2.47;;;2.28;;
12052;SDS011;6087;48.982;12.064;2023-04-23T04:52:28;2.53;;;1.60;;
12052;SDS011;6087;48.982;12.064;2023-04-23T04:54:55;3.65;;;1.95;;
12052;SDS011;6087;48.982;12.064;2023-04-23T04:57:22;3.80;;;2.15;;
12052;SDS011;6087;48.982;12.064;2023-04-23T04:59:49;4.25;;;1.92;;
12052;SDS011;6087;48.982;12.064;2023-04-23T05:02:19;3.38;;;2.03;;
12052;SDS011;6087;48.982;12.064;2023-04-23T05:04:47;2.92;;;2.15;;
12052;SDS011;6087;48.982;12.064;2023-04-23T05:07:15;1.95;;;1.70;;
12052;SDS011;6087;48.982;12.064;2023-04-23T05:09:42;3.97;;;1.85;;
12052;SDS011;6087;48.982;12.064;2023-04-23T05:12:18;3.22;;;2.20;;
12052;SDS011;6087;48.982;12.064;2023-04-23T05:14:45;3.55;;;1.98;;
12052;SDS011;6087;48.982;12.064;2023-04-23T05:17:12;3.35;;;2.00;;
12052;SDS011;6087;48.982;12.064;2023-04-23T05:19:39;2.88;;;2.63;;
12052;SDS011;6087;48.982;12.064;2023-04-23T05:22:06;2.15;;;1.95;;
12052;SDS011;6087;48.982;12.064;2023-04-23T05:24:34;3.42;;;2.13;;
12052;SDS011;6087;48.982;12.064;2023-04-23T05:27:01;2.38;;;1.95;;
12052;SDS011;6087;48.982;12.064;2023-04-23T05:29:28;3.83;;;1.95;;
12052;SDS011;6087;48.982;12.064;2023-04-23T05:31:55;4.70;;;1.80;;
12052;SDS011;6087;48.982;12.064;2023-04-23T05:34:22;3.33;;;1.98;;
12052;SDS011;6087;48.982;12.064;2023-04-23T05:36:49;3.05;;;2.45;;
12052;SDS011;6087;48.982;12.064;2023-04-23T05:39:16;2.17;;;1.92;;
12052;SDS011;6087;48.982;12.064;2023-04-23T05:41:44;3.78;;;2.08;;
12052;SDS011;6087;48.982;12.064;2023-04-23T05:44:11;4.75;;;2.00;;
12052;SDS011;6087;48.982;12.064;2023-04-23T05:46:38;2.83;;;1.83;;
12052;SDS011;6087;48.982;12.064;2023-04-23T05:49:05;3.33;;;2.20;;
12052;SDS011;6087;48.982;12.064;2023-04-23T05:51:32;2.25;;;2.00;;
12052;SDS011;6087;48.982;12.064;2023-04-23T05:53:59;2.45;;;1.83;;
12052;SDS011;6087;48.982;12.064;2023-04-23T05:56:29;3.65;;;1.80;;
12052;SDS011;6087;48.982;12.064;2023-04-23T05:59:00;2.13;;;1.52;;
12052;SDS011;6087;48.982;12.064;2023-04-23T06:01:30;3.35;;;1.90;;
12052;SDS011;6087;48.982;12.064;2023-04-23T06:03:56;5.10;;;2.00;;
12052;SDS011;6087;48.982;12.064;2023-04-23T06:06:24;2.20;;;2.00;;
12052;SDS011;6087;48.982;12.064;2023-04-23T06:08:52;2.70;;;1.88;;
12052;SDS011;6087;48.982;12.064;2023-04-23T06:11:19;4.25;;;1.88;;
12052;SDS011;6087;48.982;12.064;2023-04-23T06:13:46;2.88;;;1.90;;
12052;SDS011;6087;48.982;12.064;2023-04-23T06:16:14;1.98;;;1.70;;
12052;SDS011;6087;48.982;12.064;2023-04-23T06:18:47;3.20;;;2.05;;
12052;SDS011;6087;48.982;12.064;2023-04-23T06:21:14;3.92;;;1.80;;
12052;SDS011;6087;48.982;12.064;2023-04-23T06:23:44;2.53;;;1.95;;
12052;SDS011;6087;48.982;12.064;2023-04-23T06:26:11;2.90;;;1.88;;
12052;SDS011;6087;48.982;12.064;2023-04-23T06:28:39;1.95;;;1.55;;
12052;SDS011;6087;48.982;12.064;2023-04-23T06:31:07;2.40;;;1.50;;
12052;SDS011;6087;48.982;12.064;2023-04-23T06:33:35;4.20;;;1.58;;
12052;SDS011;6087;48.982;12.064;2023-04-23T06:36:03;3.33;;;1.45;;
12052;SDS011;6087;48.982;12.064;2023-04-23T06:38:30;3.70;;;2.15;;
12052;SDS011;6087;48.982;12.064;2023-04-23T06:40:57;1.83;;;1.63;;
12052;SDS011;6087;48.982;12.064;2023-04-23T06:43:24;1.75;;;1.52;;
12052;SDS011;6087;48.982;12.064;2023-04-23T06:45:51;2.15;;;1.40;;
12052;SDS011;6087;48.982;12.064;2023-04-23T06:48:18;2.22;;;1.30;;
12052;SDS011;6087;48.982;12.064;2023-04-23T06:50:47;2.17;;;1.48;;
12052;SDS011;6087;48.982;12.064;2023-04-23T06:53:15;2.55;;;1.30;;
12052;SDS011;6087;48.982;12.064;2023-04-23T06:55:42;2.05;;;0.90;;
12052;SDS011;6087;48.982;12.064;2023-04-23T06:58:09;1.52;;;1.13;;
12052;SDS011;6087;48.982;12.064;2023-04-23T07:00:36;1.40;;;1.15;;
12052;SDS011;6087;48.982;12.064;2023-04-23T07:03:03;2.10;;;1.15;;
12052;SDS011;6087;48.982;12.064;2023-04-23T07:05:30;2.08;;;1.38;;
12052;SDS011;6087;48.982;12.064;2023-04-23T07:08:03;1.50;;;1.33;;
12052;SDS011;6087;48.982;12.064;2023-04-23T07:10:30;3.35;;;1.00;;
12052;SDS011;6087;48.982;12.064;2023-04-23T07:12:57;1.20;;;1.10;;
12052;SDS011;6087;48.982;12.064;2023-04-23T07:15:24;1.13;;;1.02;;
12052;SDS011;6087;48.982;12.064;2023-04-23T07:17:51;1.20;;;1.10;;
12052;SDS011;6087;48.982;12.064;2023-04-23T07:20:18;1.60;;;1.00;;
12052;SDS011;6087;48.982;12.064;2023-04-23T07:22:45;2.47;;;1.15;;
12052;SDS011;6087;48.982;12.064;2023-04-23T07:25:14;2.50;;;1.85;;
12052;SDS011;6087;48.982;12.064;2023-04-23T07:27:42;1.13;;;0.95;;
12052;SDS011;6087;48.982;12.064;2023-04-23T07:30:10;1.95;;;1.25;;
12052;SDS011;6087;48.982;12.064;2023-04-23T07:32:37;0.93;;;0.93;;
12052;SDS011;6087;48.982;12.064;2023-04-23T07:35:04;2.17;;;1.42;;
12052;SDS011;6087;48.982;12.064;2023-04-23T07:37:32;2.10;;;1.50;;
12052;SDS011;6087;48.982;12.064;2023-04-23T07:39:59;1.85;;;1.02;;
12052;SDS011;6087;48.982;12.064;2023-04-23T07:42:27;2.13;;;1.35;;
12052;SDS011;6087;48.982;12.064;2023-04-23T07:44:57;1.73;;;1.63;;
12052;SDS011;6087;48.982;12.064;2023-04-23T07:47:24;2.17;;;1.27;;
12052;SDS011;6087;48.982;12.064;2023-04-23T07:49:51;1.42;;;1.23;;
12052;SDS011;6087;48.982;12.064;2023-04-23T07:52:18;2.25;;;1.52;;
12052;SDS011;6087;48.982;12.064;2023-04-23T07:54:45;1.40;;;1.30;;
12052;SDS011;6087;48.982;12.064;2023-04-23T07:57:12;1.40;;;1.30;;
12052;SDS011;6087;48.982;12.064;2023-04-23T07:59:41;3.75;;;1.10;;
12052;SDS011;6087;48.982;12.064;2023-04-23T08:02:08;1.77;;;1.20;;
12052;SDS011;6087;48.982;12.064;2023-04-23T08:04:35;1.90;;;1.45;;
12052;SDS011;6087;48.982;12.064;2023-04-23T08:07:02;1.50;;;1.33;;
12052;SDS011;6087;48.982;12.064;2023-04-23T08:09:29;1.40;;;1.00;;
12052;SDS011;6087;48.982;12.064;2023-04-23T08:11:56;1.27;;;1.17;;
12052;SDS011;6087;48.982;12.064;2023-04-23T08:14:23;1.35;;;1.17;;
12052;SDS011;6087;48.982;12.064;2023-04-23T08:16:51;1.45;;;1.35;;
12052;SDS011;6087;48.982;12.064;2023-04-23T08:19:18;1.55;;;0.98;;
12052;SDS011;6087;48.982;12.064;2023-04-23T08:21:48;1.42;;;1.33;;
12052;SDS011;6087;48.982;12.064;2023-04-23T08:24:16;3.08;;;1.77;;
12052;SDS011;6087;48.982;12.064;2023-04-23T08:26:46;2.10;;;1.20;;
12052;SDS011;6087;48.982;12.064;2023-04-23T08:29:13;2.58;;;1.58;;
12052;SDS011;6087;48.982;12.064;2023-04-23T08:31:40;1.90;;;1.35;;
12052;SDS011;6087;48.982;12.064;2023-04-23T08:34:08;1.25;;;1.15;;
12052;SDS011;6087;48.982;12.064;2023-04-23T08:36:35;2.05;;;1.70;;
12052;SDS011;6087;48.982;12.064;2023-04-23T08:39:02;2.88;;;1.30;;
12052;SDS011;6087;48.982;12.064;2023-04-23T08:41:32;4.95;;;1.80;;
12052;SDS011;6087;48.982;12.064;2023-04-23T08:44:05;3.25;;;1.40;;
12052;SDS011;6087;48.982;12.064;2023-04-23T08:46:38;3.03;;;1.50;;
12052;SDS011;6087;48.982;12.064;2023-04-23T08:49:10;1.85;;;1.63;;
12052;SDS011;6087;48.982;12.064;2023-04-23T08:51:42;3.88;;;1.42;;
12052;SDS011;6087;48.982;12.064;2023-04-23T08:54:15;4.55;;;1.50;;
12052;SDS011;6087;48.982;12.064;2023-04-23T08:56:46;1.45;;;1.35;;
12052;SDS011;6087;48.982;12.064;2023-04-23T08:59:16;2.78;;;1.40;;
12052;SDS011;6087;48.982;12.064;2023-04-23T09:01:45;1.73;;;1.45;;
12052;SDS011;6087;48.982;12.064;2023-04-23T09:04:14;2.10;;;1.10;;
12052;SDS011;6087;48.982;12.064;2023-04-23T09:06:43;1.60;;;1.45;;
12052;SDS011;6087;48.982;12.064;2023-04-23T09:09:11;1.40;;;1.30;;
12052;SDS011;6087;48.982;12.064;2023-04-23T09:11:42;2.95;;;1.48;;
12052;SDS011;6087;48.982;12.064;2023-04-23T09:14:09;2.25;;;1.45;;
12052;SDS011;6087;48.982;12.064;2023-04-23T09:16:37;5.57;;;1.92;;
12052;SDS011;6087;48.982;12.064;2023-04-23T09:19:06;1.75;;;1.42;;
12052;SDS011;6087;48.982;12.064;2023-04-23T09:21:36;4.13;;;1.83;;
12052;SDS011;6087;48.982;12.064;2023-04-23T09:24:04;1.38;;;1.27;;
12052;SDS011;6087;48.982;12.064;2023-04-23T09:26:31;3.05;;;1.60;;
12052;SDS011;6087;48.982;12.064;2023-04-23T09:28:59;4.35;;;1.67;;
12052;SDS011;6087;48.982;12.064;2023-04-23T09:31:26;2.38;;;1.27;;
12052;SDS011;6087;48.982;12.064;2023-04-23T09:33:53;2.97;;;1.50;;
12052;SDS011;6087;48.982;12.064;2023-04-23T09:36:20;1.85;;;1.75;;
12052;SDS011;6087;48.982;12.064;2023-04-23T09:38:49;1.58;;;1.48;;
12052;SDS011;6087;48.982;12.064;2023-04-23T09:41:22;2.03;;;1.85;;
12052;SDS011;6087;48.982;12.064;2023-04-23T09:43:53;3.67;;;1.90;;
12052;SDS011;6087;48.982;12.064;2023-04-23T09:46:34;2.13;;;1.88;;
12052;SDS011;6087;48.982;12.064;2023-04-23T09:49:02;2.70;;;1.80;;
12052;SDS011;6087;48.982;12.064;2023-04-23T09:51:31;2.10;;;1.88;;
12052;SDS011;6087;48.982;12.064;2023-04-23T09:54:02;2.45;;;1.88;;
12052;SDS011;6087;48.982;12.064;2023-04-23T09:56:29;1.92;;;1.83;;
12052;SDS011;6087;48.982;12.064;2023-04-23T09:58:57;2.42;;;1.52;;
12052;SDS011;6087;48.982;12.064;2023-04-23T10:01:27;1.90;;;1.60;;
12052;SDS011;6087;48.982;12.064;2023-04-23T10:03:54;1.88;;;1.60;;
12052;SDS011;6087;48.982;12.064;2023-04-23T10:06:26;2.53;;;1.75;;
12052;SDS011;6087;48.982;12.064;2023-04-23T10:08:56;2.65;;;1.73;;
12052;SDS011;6087;48.982;12.064;2023-04-23T10:11:24;3.13;;;2.03;;
12052;SDS011;6087;48.982;12.064;2023-04-23T10:13:53;2.35;;;2.15;;
12052;SDS011;6087;48.982;12.064;2023-04-23T10:16:21;2.85;;;2.65;;
12052;SDS011;6087;48.982;12.064;2023-04-23T10:18:49;2.50;;;2.33;;
12052;SDS011;6087;48.982;12.064;2023-04-23T10:21:18;2.95;;;2.70;;
12052;SDS011;6087;48.982;12.064;2023-04-23T10:23:46;2.80;;;2.50;;
12052;SDS011;6087;48.982;12.064;2023-04-23T10:26:15;3.28;;;3.00;;
12052;SDS011;6087;48.982;12.064;2023-04-23T10:28:45;4.22;;;3.17;;
12052;SDS011;6087;48.982;12.064;2023-04-23T10:31:13;4.00;;;3.60;;
12052;SDS011;6087;48.982;12.064;2023-04-23T10:33:40;3.92;;;3.65;;
12052;SDS011;6087;48.982;12.064;2023-04-23T10:36:09;4.15;;;3.85;;
12052;SDS011;6087;48.982;12.064;2023-04-23T10:38:37;3.72;;;3.42;;
12052;SDS011;6087;48.982;12.064;2023-04-23T10:41:05;4.57;;;4.18;;
12052;SDS011;6087;48.982;12.064;2023-04-23T10:43:33;5.22;;;4.00;;
12052;SDS011;6087;48.982;12.064;2023-04-23T10:46:02;3.60;;;3.30;;
12052;SDS011;6087;48.982;12.064;2023-04-23T10:48:35;3.30;;;3.00;;
12052;SDS011;6087;48.982;12.064;2023-04-23T10:51:16;3.28;;;3.08;;
12052;SDS011;6087;48.982;12.064;2023-04-23T10:53:44;3.42;;;3.00;;
12052;SDS011;6087;48.982;12.064;2023-04-23T10:56:11;3.25;;;3.05;;
12052;SDS011;6087;48.982;12.064;2023-04-23T10:58:47;4.13;;;3.60;;
12052;SDS011;6087;48.982;12.064;2023-04-23T11:01:16;3.85;;;3.50;;
12052;SDS011;6087;48.982;12.064;2023-04-23T11:03:44;3.47;;;3.17;;
12052;SDS011;6087;48.982;12.064;2023-04-23T11:06:12;4.13;;;3.50;;
12052;SDS011;6087;48.982;12.064;2023-04-23T11:08:49;3.80;;;3.50;;
12052;SDS011;6087;48.982;12.064;2023-04-23T11:11:17;3.45;;;3.20;;
12052;SDS011;6087;48.982;12.064;2023-04-23T11:13:50;3.75;;;3.42;;
12052;SDS011;6087;48.982;12.064;2023-04-23T11:16:21;4.38;;;3.30;;
12052;SDS011;6087;48.982;12.064;2023-04-23T11:18:58;3.47;;;3.17;;
12052;SDS011;6087;48.982;12.064;2023-04-23T11:24:26;3.92;;;3.63;;
12052;SDS011;6087;48.982;12.064;2023-04-23T11:26:54;4.38;;;3.78;;
12052;SDS011;6087;48.982;12.064;2023-04-23T11:29:22;4.38;;;3.97;;
12052;SDS011;6087;48.982;12.064;2023-04-23T11:31:52;4.25;;;3.95;;
12052;SDS011;6087;48.982;12.064;2023-04-23T11:34:20;3.83;;;3.53;;
12052;SDS011;6087;48.982;12.064;2023-04-23T11:36:48;4.22;;;3.92;;
12052;SDS011;6087;48.982;12.064;2023-04-23T11:39:17;4.78;;;3.75;;
12052;SDS011;6087;48.982;12.064;2023-04-23T11:41:44;4.35;;;4.05;;
12052;SDS011;6087;48.982;12.064;2023-04-23T11:44:11;4.90;;;4.47;;
12052;SDS011;6087;48.982;12.064;2023-04-23T11:46:38;4.32;;;4.03;;
12052;SDS011;6087;48.982;12.064;2023-04-23T11:49:07;4.30;;;4.00;;
12052;SDS011;6087;48.982;12.064;2023-04-23T11:51:35;4.13;;;3.83;;
12052;SDS011;6087;48.982;12.064;2023-04-23T11:54:07;4.75;;;4.45;;
12052;SDS011;6087;48.982;12.064;2023-04-23T11:56:35;5.00;;;4.70;;
12052;SDS011;6087;48.982;12.064;2023-04-23T11:59:02;4.20;;;3.90;;
12052;SDS011;6087;48.982;12.064;2023-04-23T12:01:42;4.05;;;3.75;;
12052;SDS011;6087;48.982;12.064;2023-04-23T12:04:13;4.18;;;3.88;;
12052;SDS011;6087;48.982;12.064;2023-04-23T12:06:41;3.50;;;3.20;;
12052;SDS011;6087;48.982;12.064;2023-04-23T12:09:10;3.92;;;3.63;;
12052;SDS011;6087;48.982;12.064;2023-04-23T12:11:38;3.47;;;3.17;;
12052;SDS011;6087;48.982;12.064;2023-04-23T12:14:05;4.10;;;3.80;;
12052;SDS011;6087;48.982;12.064;2023-04-23T12:16:34;3.35;;;3.15;;
12052;SDS011;6087;48.982;12.064;2023-04-23T12:19:02;3.30;;;3.10;;
12052;SDS011;6087;48.982;12.064;2023-04-23T12:21:34;3.08;;;2.88;;
12052;SDS011;6087;48.982;12.064;2023-04-23T12:24:12;2.38;;;2.22;;
12052;SDS011;6087;48.982;12.064;2023-04-23T12:26:38;2.50;;;2.28;;
12052;SDS011;6087;48.982;12.064;2023-04-23T12:29:07;2.10;;;2.00;;
12052;SDS011;6087;48.982;12.064;2023-04-23T12:31:35;2.03;;;1.92;;
12052;SDS011;6087;48.982;12.064;2023-04-23T12:34:04;2.53;;;2.38;;
12052;SDS011;6087;48.982;12.064;2023-04-23T12:36:34;1.88;;;1.75;;
12052;SDS011;6087;48.982;12.064;2023-04-23T12:39:20;2.10;;;2.00;;
12052;SDS011;6087;48.982;12.064;2023-04-23T12:41:49;2.17;;;2.08;;
12052;SDS011;6087;48.982;12.064;2023-04-23T12:44:17;2.25;;;2.15;;
12052;SDS011;6087;48.982;12.064;2023-04-23T12:46:47;1.10;;;1.10;;
12052;SDS011;6087;48.982;12.064;2023-04-23T12:49:15;1.58;;;1.27;;
12052;SDS011;6087;48.982;12.064;2023-04-23T12:51:43;1.42;;;1.33;;
12052;SDS011;6087;48.982;12.064;2023-04-23T12:54:10;1.40;;;1.30;;
12052;SDS011;6087;48.982;12.064;2023-04-23T12:56:37;1.30;;;1.23;;
12052;SDS011;6087;48.982;12.064;2023-04-23T12:59:07;1.10;;;1.10;;
12052;SDS011;6087;48.982;12.064;2023-04-23T13:01:34;1.58;;;1.13;;
12052;SDS011;6087;48.982;12.064;2023-04-23T13:04:01;1.48;;;1.25;;
12052;SDS011;6087;48.982;12.064;2023-04-23T13:06:28;1.20;;;1.10;;
12052;SDS011;6087;48.982;12.064;2023-04-23T13:08:59;1.55;;;0.85;;
12052;SDS011;6087;48.982;12.064;2023-04-23T13:11:29;1.00;;;1.00;;
12052;SDS011;6087;48.982;12.064;2023-04-23T13:13:59;1.40;;;0.90;;
12052;SDS011;6087;48.982;12.064;2023-04-23T13:16:26;1.85;;;1.27;;
12052;SDS011;6087;48.982;12.064;2023-04-23T13:18:52;1.20;;;1.10;;
12052;SDS011;6087;48.982;12.064;2023-04-23T13:21:20;0.70;;;0.70;;
12052;SDS011;6087;48.982;12.064;2023-04-23T13:23:50;0.77;;;0.70;;
12052;SDS011;6087;48.982;12.064;2023-04-23T13:26:18;0.90;;;0.90;;
12052;SDS011;6087;48.982;12.064;2023-04-23T13:28:45;0.73;;;0.70;;
12052;SDS011;6087;48.982;12.064;2023-04-23T13:31:12;0.93;;;0.70;;
12052;SDS011;6087;48.982;12.064;2023-04-23T13:33:39;0.60;;;0.60;;
12052;SDS011;6087;48.982;12.064;2023-04-23T13:36:07;1.58;;;0.90;;
12052;SDS011;6087;48.982;12.064;2023-04-23T13:38:34;0.70;;;0.70;;
12052;SDS011;6087;48.982;12.064;2023-04-23T13:41:01;0.98;;;0.98;;
12052;SDS011;6087;48.982;12.064;2023-04-23T13:43:29;0.90;;;0.90;;
12052;SDS011;6087;48.982;12.064;2023-04-23T13:45:56;0.82;;;0.82;;
12052;SDS011;6087;48.982;12.064;2023-04-23T13:48:25;0.88;;;0.77;;
12052;SDS011;6087;48.982;12.064;2023-04-23T13:50:55;0.85;;;0.85;;
12052;SDS011;6087;48.982;12.064;2023-04-23T13:53:22;3.15;;;1.00;;
12052;SDS011;6087;48.982;12.064;2023-04-23T13:55:49;1.08;;;1.08;;
12052;SDS011;6087;48.982;12.064;2023-04-23T13:58:16;0.85;;;0.85;;
12052;SDS011;6087;48.982;12.064;2023-04-23T14:00:45;0.80;;;0.80;;
12052;SDS011;6087;48.982;12.064;2023-04-23T14:03:11;0.82;;;0.82;;
12052;SDS011;6087;48.982;12.064;2023-04-23T14:05:38;0.70;;;0.70;;
12052;SDS011;6087;48.982;12.064;2023-04-23T14:08:05;2.22;;;1.00;;
12052;SDS011;6087;48.982;12.064;2023-04-23T14:10:35;0.70;;;0.70;;
12052;SDS011;6087;48.982;12.064;2023-04-23T14:13:02;2.50;;;1.00;;
12052;SDS011;6087;48.982;12.064;2023-04-23T14:15:29;2.65;;;0.82;;
12052;SDS011;6087;48.982;12.064;2023-04-23T14:17:57;0.68;;;0.68;;
12052;SDS011;6087;48.982;12.064;2023-04-23T14:20:24;1.13;;;0.85;;
12052;SDS011;6087;48.982;12.064;2023-04-23T14:22:54;1.17;;;1.08;;
12052;SDS011;6087;48.982;12.064;2023-04-23T14:25:28;1.10;;;0.90;;
12052;SDS011;6087;48.982;12.064;2023-04-23T14:28:00;1.13;;;1.13;;
12052;SDS011;6087;48.982;12.064;2023-04-23T14:30:29;1.45;;;1.27;;
12052;SDS011;6087;48.982;12.064;2023-04-23T14:32:58;3.13;;;1.10;;
12052;SDS011;6087;48.982;12.064;2023-04-23T14:35:25;1.60;;;0.93;;
12052;SDS011;6087;48.982;12.064;2023-04-23T14:37:52;1.08;;;0.95;;
12052;SDS011;6087;48.982;12.064;2023-04-23T14:40:19;0.95;;;0.90;;
12052;SDS011;6087;48.982;12.064;2023-04-23T14:42:46;1.27;;;1.10;;
12052;SDS011;6087;48.982;12.064;2023-04-23T14:45:14;1.40;;;1.30;;
12052;SDS011;6087;48.982;12.064;2023-04-23T14:47:42;1.42;;;1.30;;
12052;SDS011;6087;48.982;12.064;2023-04-23T14:50:13;1.27;;;1.10;;
12052;SDS011;6087;48.982;12.064;2023-04-23T14:52:41;0.98;;;0.98;;
12052;SDS011;6087;48.982;12.064;2023-04-23T14:55:12;1.38;;;1.23;;
12052;SDS011;6087;48.982;12.064;2023-04-23T14:57:39;1.00;;;1.00;;
12052;SDS011;6087;48.982;12.064;2023-04-23T15:00:06;0.82;;;0.82;;